Time;durP1;ratioP1;P1;durP2;ratioP2;P2;SDS_P1;SDS_P2;PMS_P1;PMS_P2;Temp;Humidity;BMP_temperature;BMP_pressure;BME280_temperature;BME280_humidity;BME280_pressure;Samples;Min_cycle;Max_cycle;Signal;HPM_P1;HPM_P2
2022/04/27 00:01:43;;;;;;;4.68;2.65;;;;;;;16.44;53.03;101075.38;4995416;28;20541;-89
2022/04/27 00:04:08;;;;;;;4.93;2.38;;;;;;;16.37;53.49;101058.41;4995112;28;20033;-88
2022/04/27 00:06:34;;;;;;;2.83;2.40;;;;;;;16.41;53.64;101073.75;4995300;28;20056;-90
2022/04/27 00:08:59;;;;;;;3.00;2.70;;;;;;;16.38;54.40;101066.16;4979039;28;20045;-89
2022/04/27 00:11:25;;;;;;;3.15;2.45;;;;;;;16.21;54.15;101054.19;5011389;28;20500;-90
2022/04/27 00:13:50;;;;;;;3.08;2.60;;;;;;;16.30;53.81;101079.69;4978867;28;20088;-89
2022/04/27 00:16:16;;;;;;;3.83;2.33;;;;;;;16.29;53.84;101083.25;4995321;28;20414;-90
2022/04/27 00:18:41;;;;;;;3.55;2.78;;;;;;;16.28;54.28;101086.81;4978447;28;20030;-90
2022/04/27 00:21:07;;;;;;;2.92;2.58;;;;;;;16.23;54.19;101082.84;4994932;28;20115;-90
2022/04/27 00:23:34;;;;;;;4.47;3.00;;;;;;;16.21;53.76;101080.28;4995147;28;20387;-90
2022/04/27 00:26:00;;;;;;;3.38;2.90;;;;;;;16.22;53.57;101082.00;4995455;28;20034;-90
2022/04/27 00:28:25;;;;;;;5.95;2.92;;;;;;;16.31;54.08;101090.97;4978750;28;20053;-89
2022/04/27 00:30:51;;;;;;;3.88;2.90;;;;;;;16.24;54.90;101087.94;4994627;28;20022;-90
2022/04/27 00:33:16;;;;;;;4.10;3.00;;;;;;;16.08;54.50;101071.59;4994193;28;20034;-89
2022/04/27 00:35:42;;;;;;;3.75;2.70;;;;;;;16.16;54.73;101094.59;4978481;28;20049;-89
2022/04/27 00:38:07;;;;;;;3.95;2.83;;;;;;;16.19;54.74;101092.63;4994547;28;20050;-90
2022/04/27 00:40:33;;;;;;;5.07;3.00;;;;;;;16.15;54.99;101077.28;4994704;28;20104;-89
2022/04/27 00:42:58;;;;;;;3.03;2.60;;;;;;;16.24;54.77;101085.34;4994623;28;20037;-89
2022/04/27 00:45:24;;;;;;;4.35;2.55;;;;;;;16.18;54.57;101082.28;4978479;28;20091;-89
2022/04/27 00:47:49;;;;;;;3.13;2.60;;;;;;;16.14;54.45;101078.22;4994081;28;20041;-89
2022/04/27 00:50:15;;;;;;;4.47;2.80;;;;;;;16.00;54.56;101058.22;4994474;28;20044;-89
2022/04/27 00:52:40;;;;;;;3.97;2.50;;;;;;;16.23;54.74;101088.88;5010650;28;20193;-89
2022/04/27 00:55:06;;;;;;;3.20;2.55;;;;;;;16.16;54.84;101077.16;4994281;28;20172;-89
2022/04/27 00:57:32;;;;;;;4.10;2.50;;;;;;;16.13;55.42;101082.59;4994604;28;20113;-90
2022/04/27 00:59:57;;;;;;;3.67;2.90;;;;;;;16.20;55.07;101089.06;4994175;28;20458;-90
2022/04/27 01:02:22;;;;;;;3.28;2.58;;;;;;;16.15;55.54;101079.88;4993824;28;20041;-90
2022/04/27 01:04:48;;;;;;;5.55;2.60;;;;;;;16.12;55.43;101073.06;4994204;28;20034;-90
2022/04/27 01:07:14;;;;;;;3.15;2.60;;;;;;;16.12;55.14;101080.88;4993936;28;20419;-89
2022/04/27 01:09:40;;;;;;;2.85;2.50;;;;;;;16.11;55.15;101083.59;5010437;28;20046;-89
2022/04/27 01:12:06;;;;;;;4.57;2.63;;;;;;;16.03;55.22;101071.91;4994165;28;20451;-90
2022/04/27 01:14:41;;;;;;;3.58;2.50;;;;;;;16.11;55.20;101091.44;4994385;28;20030;-90
2022/04/27 01:17:07;;;;;;;4.68;2.53;;;;;;;16.03;55.36;101087.56;5010190;28;20502;-90
2022/04/27 01:19:33;;;;;;;4.10;2.60;;;;;;;15.99;55.33;101086.06;4977892;28;20037;-89
2022/04/27 01:21:59;;;;;;;4.28;2.50;;;;;;;15.95;55.69;101078.56;4994176;28;20562;-90
2022/04/27 01:24:25;;;;;;;4.95;2.60;;;;;;;15.75;55.49;101059.78;4993811;28;20176;-90
2022/04/27 01:26:51;;;;;;;3.83;2.50;;;;;;;15.73;56.16;101076.44;5010037;28;20080;-90
2022/04/27 01:29:17;;;;;;;3.80;2.40;;;;;;;15.68;55.43;101065.50;4993962;28;20107;-90
2022/04/27 01:31:43;;;;;;;3.15;2.50;;;;;;;15.73;55.76;101084.28;4993615;28;20523;-90
2022/04/27 01:34:09;;;;;;;2.95;2.50;;;;;;;15.74;55.87;101084.22;4994004;28;20132;-89
2022/04/27 01:36:35;;;;;;;3.83;2.65;;;;;;;15.60;56.23;101079.00;4993887;28;20030;-90
2022/04/27 01:39:00;;;;;;;4.63;2.92;;;;;;;15.57;56.13;101079.16;4993774;28;20033;-90
2022/04/27 01:41:26;;;;;;;4.95;3.00;;;;;;;15.56;57.09;101077.50;4993790;28;20044;-90
2022/04/27 01:43:51;;;;;;;4.05;3.47;;;;;;;15.61;57.16;101080.69;4993096;28;20022;-89
2022/04/27 01:46:17;;;;;;;5.25;3.60;;;;;;;15.54;56.70;101076.75;4993499;28;20036;-89
2022/04/27 01:48:42;;;;;;;5.68;4.00;;;;;;;15.50;56.88;101067.44;4993677;28;20025;-90
2022/04/27 01:51:09;;;;;;;4.97;3.78;;;;;;;15.54;56.52;101079.38;4977523;28;20030;-89
2022/04/27 01:56:18;;;;;;;4.45;3.88;;;;;;;15.35;56.73;101071.84;5009891;28;20084;-89
2022/04/27 01:58:45;;;;;;;4.88;3.47;;;;;;;15.31;57.31;101069.50;4977342;28;20030;-89
2022/04/27 02:01:11;;;;;;;4.93;3.20;;;;;;;15.26;57.19;101068.97;4993531;28;20037;-89
2022/04/27 02:03:37;;;;;;;6.10;3.50;;;;;;;15.12;57.62;101069.78;4993482;28;20022;-89
2022/04/27 02:06:03;;;;;;;3.67;3.17;;;;;;;15.25;57.58;101081.16;4993590;28;20030;-90
2022/04/27 02:08:29;;;;;;;4.55;3.20;;;;;;;15.26;57.68;101082.00;5009475;28;20022;-90
2022/04/27 02:10:54;;;;;;;6.15;3.15;;;;;;;15.22;57.79;101073.50;4976936;28;20135;-90
2022/04/27 02:13:20;;;;;;;5.50;3.00;;;;;;;15.24;58.07;101087.31;4993386;28;20494;-89
2022/04/27 02:15:45;;;;;;;3.92;3.30;;;;;;;15.17;58.09;101086.84;4993406;28;20075;-90
2022/04/27 02:18:11;;;;;;;3.97;2.97;;;;;;;15.00;58.69;101079.19;4977203;28;20037;-89
2022/04/27 02:20:37;;;;;;;4.18;3.20;;;;;;;15.00;59.39;101086.19;4993210;28;20079;-90
2022/04/27 02:23:02;;;;;;;6.47;3.05;;;;;;;14.90;59.56;101080.69;4993672;28;20543;-89
2022/04/27 02:25:28;;;;;;;5.22;3.20;;;;;;;14.82;59.70;101083.72;4993473;28;20026;-90
2022/04/27 02:27:53;;;;;;;4.03;3.08;;;;;;;14.91;60.15;101095.38;4977248;28;20427;-90
2022/04/27 02:30:19;;;;;;;5.88;3.13;;;;;;;14.59;59.86;101092.06;4993061;28;20029;-91
2022/04/27 02:32:45;;;;;;;3.92;3.50;;;;;;;14.38;60.39;101070.69;5009835;28;20026;-90
2022/04/27 02:35:11;;;;;;;3.95;3.33;;;;;;;14.48;60.64;101091.84;4977602;28;20036;-89
2022/04/27 02:37:37;;;;;;;5.53;3.88;;;;;;;14.48;60.27;101078.84;4992979;28;20033;-89
2022/04/27 02:40:03;;;;;;;6.65;3.75;;;;;;;14.60;60.13;101104.16;4993164;28;20117;-89
2022/04/27 02:42:29;;;;;;;4.82;3.83;;;;;;;14.56;60.51;101100.91;4993132;28;20479;-90
2022/04/27 02:44:58;;;;;;;4.90;3.40;;;;;;;14.66;60.00;101105.59;5009311;28;20032;-89
2022/04/27 02:47:24;;;;;;;6.47;3.40;;;;;;;14.61;59.82;101093.66;4993128;28;20387;-90
2022/04/27 02:52:33;;;;;;;3.53;3.20;;;;;;;14.58;60.03;101109.47;4995529;28;20064;-87
2022/04/27 02:54:59;;;;;;;3.17;2.50;;;;;;;14.31;59.97;101071.97;5010086;28;20026;-87
2022/04/27 02:57:24;;;;;;;3.67;2.80;;;;;;;14.50;60.54;101122.06;5012423;28;20030;-87
2022/04/27 02:59:50;;;;;;;3.22;2.70;;;;;;;14.40;60.24;101102.66;5012407;28;20500;-89
2022/04/27 03:02:15;;;;;;;4.20;2.70;;;;;;;14.42;60.29;101107.78;4996639;28;20084;-89
2022/04/27 03:04:41;;;;;;;3.63;2.42;;;;;;;14.59;60.16;101123.31;4980028;28;20030;-84
2022/04/27 03:07:06;;;;;;;4.88;2.35;;;;;;;15.45;57.14;101121.66;4996694;28;20038;-89
2022/04/27 03:09:32;;;;;;;4.35;2.00;;;;;;;16.82;52.85;101118.09;4996149;28;20053;-88
2022/04/27 03:11:57;;;;;;;3.85;1.90;;;;;;;16.28;53.99;101132.97;4995625;28;20025;-89
2022/04/27 03:14:23;;;;;;;2.38;1.88;;;;;;;16.55;53.53;101138.16;4995935;28;20384;-89
2022/04/27 03:16:49;;;;;;;2.88;1.90;;;;;;;16.82;52.43;101138.16;4979841;28;20125;-89
2022/04/27 03:19:14;;;;;;;2.42;1.90;;;;;;;16.78;52.65;101152.34;4996208;28;20415;-89
2022/04/27 03:21:40;;;;;;;3.33;2.00;;;;;;;16.25;53.69;101139.22;4996031;28;20410;-89
2022/04/27 03:24:05;;;;;;;2.65;2.20;;;;;;;15.99;54.17;101142.66;4979775;28;20483;-89
2022/04/27 03:26:31;;;;;;;2.70;2.30;;;;;;;15.85;55.27;101166.19;4993296;28;20451;-88
2022/04/27 03:28:57;;;;;;;3.55;2.22;;;;;;;15.56;56.22;101181.81;5011460;28;20487;-87
2022/04/27 03:31:23;;;;;;;169.02;12.00;;;;;;;15.16;57.68;101173.78;4995169;28;20025;-88
2022/04/27 03:33:49;;;;;;;18.60;3.03;;;;;;;15.01;57.74;101169.47;4979335;28;20049;-89
2022/04/27 03:36:14;;;;;;;40.42;5.25;;;;;;;14.85;57.50;101159.13;4995419;28;20434;-88
2022/04/27 03:38:40;;;;;;;95.82;7.20;;;;;;;14.68;57.91;101166.22;4995284;28;20026;-88
2022/04/27 03:41:06;;;;;;;50.25;6.10;;;;;;;14.60;58.42;101169.25;4995252;28;20036;-89
2022/04/27 03:43:32;;;;;;;23.73;5.78;;;;;;;14.59;58.70;101172.78;4995095;28;20423;-89
2022/04/27 03:45:57;;;;;;;54.42;7.05;;;;;;;14.48;59.17;101155.19;4995638;28;20030;-89
2022/04/27 03:48:22;;;;;;;11.18;3.67;;;;;;;14.46;59.09;101177.84;5011876;28;20041;-89
2022/04/27 03:50:48;;;;;;;4.65;2.75;;;;;;;14.42;58.99;101181.50;4995064;28;20037;-89
2022/04/27 03:53:13;;;;;;;4.47;2.50;;;;;;;14.39;59.31;101180.84;4994919;28;20034;-89
2022/04/27 03:55:39;;;;;;;3.83;2.90;;;;;;;14.36;59.55;101189.69;4994706;28;20526;-90
2022/04/27 03:58:05;;;;;;;4.40;2.90;;;;;;;14.35;59.67;101195.78;4994812;28;20030;-88
2022/04/27 04:00:30;;;;;;;5.47;2.90;;;;;;;14.29;59.81;101194.38;4994826;28;20025;-89
2022/04/27 04:02:58;;;;;;;4.50;2.95;;;;;;;14.37;59.88;101188.75;4994911;28;20524;-88
2022/04/27 04:05:24;;;;;;;4.82;3.38;;;;;;;14.35;60.02;101190.56;4994862;28;20476;-90
2022/04/27 04:07:49;;;;;;;6.22;3.42;;;;;;;14.38;60.22;101197.41;4993138;28;20042;-90
2022/04/27 04:10:15;;;;;;;3.38;3.08;;;;;;;14.54;61.34;101180.84;4994699;28;20049;-85
2022/04/27 04:12:40;;;;;;;4.78;3.05;;;;;;;15.56;56.82;101192.25;5010881;28;20041;-87
2022/04/27 04:15:06;;;;;;;5.13;3.08;;;;;;;15.30;58.01;101196.41;5010711;28;20026;-84
2022/04/27 04:17:32;;;;;;;5.18;3.20;;;;;;;15.03;58.05;101171.97;4993275;28;20038;-85
2022/04/27 04:19:57;;;;;;;4.35;2.90;;;;;;;14.81;57.97;101159.38;5009621;28;20046;-86
2022/04/27 04:22:23;;;;;;;4.85;2.83;;;;;;;15.02;58.23;101199.78;5022017;28;20030;-85
2022/04/27 04:30:16;;;;;;;4.63;3.10;;;;;;;14.40;61.10;101214.59;5003840;28;20057;-89
2022/04/27 04:32:42;;;;;;;14.65;3.78;;;;;;;14.45;61.02;101215.19;4992585;28;20431;-92
2022/04/27 04:35:08;;;;;;;3.95;3.55;;;;;;;14.40;61.41;101198.97;4991957;28;20428;-91
2022/04/27 04:37:33;;;;;;;6.93;3.63;;;;;;;14.57;62.11;101211.94;4992037;28;20037;-93
2022/04/27 04:40:02;;;;;;;5.40;3.43;;;;;;;14.70;62.01;101216.44;4994794;28;20030;-93
2022/04/27 04:42:27;;;;;;;5.10;3.67;;;;;;;14.67;61.74;101212.25;4982812;28;20491;-91
2022/04/27 04:44:52;;;;;;;6.28;4.40;;;;;;;14.76;61.91;101231.72;4994743;28;20033;-90
2022/04/27 04:47:18;;;;;;;6.82;5.32;;;;;;;14.60;62.41;101227.38;4994999;28;20045;-94
2022/04/27 04:49:43;;;;;;;6.03;4.40;;;;;;;14.60;62.65;101227.38;5000297;28;20026;-92
2022/04/27 04:52:10;;;;;;;7.80;3.90;;;;;;;15.49;61.72;101217.00;4978104;28;20030;-92
2022/04/27 04:54:35;;;;;;;7.32;3.63;;;;;;;16.89;57.05;101239.53;4994081;28;20070;-95
2022/04/27 04:57:01;;;;;;;6.75;3.70;;;;;;;16.10;59.02;101238.53;4992788;28;20030;-91
2022/04/27 04:59:27;;;;;;;4.68;3.88;;;;;;;15.36;62.03;101258.63;4991729;28;20030;-95
2022/04/27 05:01:53;;;;;;;6.78;3.97;;;;;;;14.98;63.37;101253.03;4986897;28;20026;-94
2022/04/27 05:04:22;;;;;;;5.57;3.83;;;;;;;15.36;62.59;101237.75;4999004;28;20057;-94
2022/04/27 05:06:48;;;;;;;6.05;3.75;;;;;;;15.56;61.92;101226.16;5023779;28;20525;-96
2022/04/27 05:09:14;;;;;;;6.03;3.58;;;;;;;15.81;62.46;101246.38;5007476;28;20057;-86
2022/04/27 05:11:39;;;;;;;5.50;3.70;;;;;;;16.14;59.65;101251.31;4975035;28;20030;-86
2022/04/27 05:14:05;;;;;;;4.65;3.20;;;;;;;16.89;58.52;101242.16;4991995;28;20065;-96
2022/04/27 05:16:33;;;;;;;7.93;3.13;;;;;;;18.39;54.35;101224.00;5005342;28;20018;-87
2022/04/27 05:18:59;;;;;;;5.47;2.90;;;;;;;18.97;52.69;101229.41;4996237;28;20033;-93
2022/04/27 05:21:25;;;;;;;5.53;3.10;;;;;;;19.81;49.80;101236.97;5012815;28;20116;-85
2022/04/27 05:23:51;;;;;;;4.63;2.63;;;;;;;20.57;49.19;101240.56;5009447;28;20029;-91
2022/04/27 05:26:16;;;;;;;5.53;3.08;;;;;;;20.43;48.41;101231.16;4996257;28;20128;-89
2022/04/27 05:34:10;;;;;;;5.90;2.85;;;;;;;21.24;46.45;101244.66;4981826;28;20064;-87
2022/04/27 05:36:36;;;;;;;5.55;2.78;;;;;;;21.34;45.74;101258.78;4990918;28;20026;-88
2022/04/27 05:39:01;;;;;;;7.22;3.00;;;;;;;21.65;44.39;101270.19;5012571;28;20083;-89
2022/04/27 05:41:28;;;;;;;6.65;2.80;;;;;;;21.08;45.12;101230.19;4979585;28;20510;-87
2022/04/27 05:43:53;;;;;;;6.50;2.97;;;;;;;20.99;45.75;101266.94;5010065;28;20047;-89
2022/04/27 05:46:19;;;;;;;8.80;3.50;;;;;;;20.07;47.06;101248.06;4995709;28;20414;-92
2022/04/27 05:48:45;;;;;;;9.25;3.78;;;;;;;20.65;46.76;101272.34;5012376;28;20049;-91
2022/04/27 05:51:11;;;;;;;8.00;3.42;;;;;;;20.84;44.85;101274.28;4994735;28;20029;-92
2022/04/27 05:53:39;;;;;;;6.30;3.03;;;;;;;19.90;47.63;101280.06;4976336;28;20041;-92
2022/04/27 05:56:05;;;;;;;5.18;3.00;;;;;;;19.44;47.58;101270.41;4993442;28;20406;-84
2022/04/27 05:58:31;;;;;;;5.22;2.92;;;;;;;19.16;48.41;101276.91;5028773;28;20025;-91
2022/04/27 06:00:57;;;;;;;4.35;2.95;;;;;;;18.41;49.52;101284.97;4994489;28;20041;-92
2022/04/27 06:03:22;;;;;;;4.00;3.00;;;;;;;17.86;50.82;101293.25;4999107;28;20054;-88
2022/04/27 06:05:48;;;;;;;6.78;3.33;;;;;;;17.98;53.14;101287.97;5029511;28;20036;-89
2022/04/27 06:08:14;;;;;;;5.50;3.15;;;;;;;18.41;52.28;101256.16;4988060;28;20069;-88
2022/04/27 06:10:39;;;;;;;5.38;2.55;;;;;;;19.20;50.21;101279.19;4975850;28;20057;-90
2022/04/27 06:13:05;;;;;;;5.88;2.70;;;;;;;19.76;48.96;101296.84;4992252;28;20040;-94
2022/04/27 06:15:30;;;;;;;7.05;2.83;;;;;;;20.01;47.83;101283.50;4975878;28;20214;-87
2022/04/27 06:17:56;;;;;;;3.22;2.50;;;;;;;19.57;45.69;101286.13;4975435;28;20088;-84
2022/04/27 06:20:21;;;;;;;5.53;2.80;;;;;;;19.34;47.10;101290.44;4986122;28;20033;-87
2022/04/27 06:22:47;;;;;;;4.28;2.70;;;;;;;19.59;47.90;101282.41;4995410;28;20029;-85
2022/04/27 06:25:13;;;;;;;5.05;2.85;;;;;;;18.83;47.29;101285.47;5011403;28;20502;-85
2022/04/27 06:27:38;;;;;;;5.25;2.75;;;;;;;18.77;47.42;101293.78;4991907;28;20030;-85
2022/04/27 06:30:04;;;;;;;5.25;3.97;;;;;;;18.53;50.30;101291.97;4976395;28;20026;-88
2022/04/27 06:32:33;;;;;;;3.20;2.40;;;;;;;19.00;46.72;101303.44;4978787;28;20410;-92
2022/04/27 06:34:59;;;;;;;4.43;2.38;;;;;;;18.57;47.99;101301.25;4964068;28;20034;-85
2022/04/27 06:37:26;;;;;;;3.92;2.63;;;;;;;18.88;48.62;101299.94;4979488;28;20034;-84
2022/04/27 06:39:51;;;;;;;3.30;2.60;;;;;;;19.15;46.70;101296.22;4994443;28;20537;-84
2022/04/27 06:42:20;;;;;;;5.97;3.05;;;;;;;19.20;47.07;101294.94;5005521;28;20037;-86
2022/04/27 06:44:49;;;;;;;3.45;2.60;;;;;;;19.44;47.57;101292.25;5027744;28;20414;-93
2022/04/27 06:47:15;;;;;;;5.65;2.70;;;;;;;19.75;46.65;101269.75;5015271;28;20081;-91
2022/04/27 06:49:41;;;;;;;4.38;2.72;;;;;;;20.01;46.64;101296.63;5013736;28;20065;-93
2022/04/27 06:52:07;;;;;;;5.93;3.95;;;;;;;20.05;45.75;101289.34;4993868;28;20033;-90
2022/04/27 06:54:32;;;;;;;4.38;3.05;;;;;;;19.97;46.20;101292.59;4981336;28;20034;-89
2022/04/27 06:56:59;;;;;;;4.78;3.30;;;;;;;20.29;45.67;101295.31;5001139;28;20034;-94
2022/04/27 06:59:24;;;;;;;5.75;4.65;;;;;;;20.45;45.63;101291.47;5032822;28;20044;-89
2022/04/27 07:01:50;;;;;;;8.60;3.95;;;;;;;20.50;45.10;101302.47;4996331;28;20832;-93
2022/04/27 07:04:51;;;;;;;4.88;3.38;;;;;;;20.56;45.33;101296.75;4984150;28;20054;-93
2022/04/27 07:07:16;;;;;;;3.40;3.03;;;;;;;20.34;44.36;101266.84;5017770;28;20100;-92
2022/04/27 07:09:42;;;;;;;6.22;3.08;;;;;;;20.64;45.17;101294.31;5016594;28;20061;-91
2022/04/27 07:12:09;;;;;;;5.20;2.90;;;;;;;20.62;44.35;101293.59;5001352;28;20128;-94
2022/04/27 07:14:34;;;;;;;4.68;2.75;;;;;;;20.70;44.53;101299.06;5015976;28;20533;-91
2022/04/27 07:17:00;;;;;;;6.28;3.70;;;;;;;20.82;43.59;101295.44;4996887;28;20033;-86
2022/04/27 07:19:25;;;;;;;3.45;2.47;;;;;;;20.62;43.42;101277.81;5011526;28;20041;-86
2022/04/27 07:21:51;;;;;;;3.15;2.80;;;;;;;20.85;44.73;101297.84;4998920;28;20037;-93
2022/04/27 07:24:17;;;;;;;6.30;3.30;;;;;;;21.00;43.37;101303.63;4998374;28;20029;-85
2022/04/27 07:26:42;;;;;;;4.32;3.17;;;;;;;20.99;42.60;101306.41;5033212;28;20022;-90
2022/04/27 07:29:09;;;;;;;4.13;2.80;;;;;;;20.64;42.73;101291.69;4995664;28;20042;-89
2022/04/27 07:31:35;;;;;;;5.75;2.92;;;;;;;20.53;43.09;101303.06;5014389;28;20026;-89
2022/04/27 07:34:01;;;;;;;5.55;2.90;;;;;;;20.79;44.27;101302.75;5005214;28;20483;-94
2022/04/27 07:36:26;;;;;;;3.30;2.60;;;;;;;20.82;42.37;101303.34;5008833;28;20036;-87
2022/04/27 07:38:53;;;;;;;83.30;17.77;;;;;;;20.75;43.71;101312.69;5008015;28;20037;-91
2022/04/27 07:41:18;;;;;;;4.38;2.80;;;;;;;20.65;42.78;101290.75;5001460;28;20061;-92
2022/04/27 07:43:44;;;;;;;8.55;3.38;;;;;;;20.91;43.34;101317.53;4969126;28;20061;-92
2022/04/27 07:46:11;;;;;;;4.53;2.80;;;;;;;20.78;44.15;101288.78;4999263;28;20032;-91
2022/04/27 07:48:37;;;;;;;4.72;2.90;;;;;;;20.94;43.30;101314.63;5002223;28;20029;-92
2022/04/27 07:51:03;;;;;;;3.90;2.90;;;;;;;21.04;43.48;101315.59;4979579;28;20471;-89
2022/04/27 07:53:28;;;;;;;6.57;3.00;;;;;;;20.90;42.62;101310.59;5007548;28;20029;-88
2022/04/27 07:55:54;;;;;;;7.47;3.97;;;;;;;20.94;43.39;101322.53;5012857;28;20036;-86
2022/04/27 07:58:20;;;;;;;4.25;2.90;;;;;;;20.76;42.92;101308.28;4996897;28;20136;-86
2022/04/27 08:00:46;;;;;;;4.20;2.90;;;;;;;20.77;42.96;101296.78;5012940;28;20033;-86
2022/04/27 08:03:12;;;;;;;5.68;3.00;;;;;;;20.98;43.16;101312.63;5011904;28;20028;-83
2022/04/27 08:05:38;;;;;;;3.10;2.63;;;;;;;21.15;42.95;101315.53;4983231;28;20152;-89
2022/04/27 08:08:05;;;;;;;5.22;3.10;;;;;;;21.37;43.44;101305.88;5008152;28;20037;-92
2022/04/27 08:10:31;;;;;;;4.38;2.88;;;;;;;21.52;43.02;101315.13;4962486;28;20081;-88
2022/04/27 08:12:57;;;;;;;5.45;2.90;;;;;;;21.35;42.56;101305.19;4984785;28;20087;-88
2022/04/27 08:15:24;;;;;;;4.28;3.10;;;;;;;21.58;41.89;101319.03;5013746;28;20034;-86
2022/04/27 08:17:59;;;;;;;4.15;3.17;;;;;;;21.63;41.74;101319.47;4983295;28;20038;-90
2022/04/27 08:23:10;;;;;;;5.47;3.88;;;;;;;21.69;42.42;101308.44;5002079;28;20121;-90
2022/04/27 08:25:36;;;;;;;5.60;4.10;;;;;;;21.84;42.77;101312.41;4995798;28;20109;-90
2022/04/27 08:28:05;;;;;;;6.35;3.80;;;;;;;21.89;41.92;101309.38;4991614;28;20033;-92
2022/04/27 08:30:34;;;;;;;5.53;3.97;;;;;;;22.10;41.19;101312.81;4993279;28;20065;-82
2022/04/27 08:33:00;;;;;;;4.70;3.50;;;;;;;22.09;41.88;101295.34;5007058;28;20498;-86
2022/04/27 08:35:27;;;;;;;5.30;3.72;;;;;;;22.28;40.34;101299.84;4993980;28;20442;-86
2022/04/27 08:37:52;;;;;;;5.22;3.90;;;;;;;22.34;40.73;101315.13;5011529;28;20033;-85
2022/04/27 08:40:19;;;;;;;4.95;3.70;;;;;;;22.32;41.30;101293.34;4994710;28;20033;-84
2022/04/27 08:42:45;;;;;;;6.15;4.28;;;;;;;22.46;40.61;101308.78;5009382;28;20071;-86
2022/04/27 08:45:10;;;;;;;4.72;3.80;;;;;;;22.34;40.63;101299.31;4989201;28;20066;-84
2022/04/27 08:47:36;;;;;;;5.25;3.70;;;;;;;22.46;42.45;101292.94;4975384;28;20026;-84
2022/04/27 08:50:15;;;;;;;7.53;4.57;;;;;;;22.60;41.22;101299.63;4992151;28;20025;-84
2022/04/27 08:52:42;;;;;;;8.95;4.80;;;;;;;22.67;40.92;101289.38;5008134;28;20033;-86
2022/04/27 08:55:08;;;;;;;6.90;4.70;;;;;;;22.51;41.48;101298.63;4991917;28;20418;-84
2022/04/27 08:57:34;;;;;;;6.68;4.20;;;;;;;22.71;41.44;101290.75;4975000;28;20022;-86
2022/04/27 09:00:00;;;;;;;7.65;4.45;;;;;;;22.70;42.22;101289.91;5006930;28;20037;-87
2022/04/27 09:02:26;;;;;;;6.40;4.65;;;;;;;22.88;40.68;101283.03;5012108;28;20029;-88
2022/04/27 09:05:26;;;;;;;4.70;4.13;;;;;;;23.00;41.57;101288.16;4988707;28;20053;-84
2022/04/27 09:07:53;;;;;;;4.80;4.30;;;;;;;22.96;42.24;101279.69;4970976;28;20030;-88
2022/04/27 09:10:21;;;;;;;6.22;4.50;;;;;;;22.81;41.21;101268.72;5007742;28;20515;-91
2022/04/27 09:12:53;;;;;;;6.03;4.10;;;;;;;23.10;41.29;101284.53;4988340;28;20026;-87
2022/04/27 09:15:23;;;;;;;10.13;4.40;;;;;;;23.33;43.01;101281.63;5006648;28;20521;-85
2022/04/27 09:23:24;;;;;;;6.18;3.90;;;;;;;23.70;41.35;101257.91;4980496;28;20443;-88
2022/04/27 09:25:55;;;;;;;5.93;4.13;;;;;;;23.68;42.04;101267.78;4973030;28;20061;-90
2022/04/27 09:28:31;;;;;;;4.53;3.58;;;;;;;23.80;40.62;101269.28;4973018;28;20026;-94
2022/04/27 09:30:58;;;;;;;5.70;3.80;;;;;;;23.97;40.26;101265.84;4973634;28;20464;-89
2022/04/27 09:33:37;;;;;;;3.80;3.40;;;;;;;24.06;40.13;101245.63;4971161;28;20483;-89
2022/04/27 09:36:22;;;;;;;4.38;3.33;;;;;;;24.19;40.01;101242.66;4972296;28;20065;-88
2022/04/27 09:38:47;;;;;;;4.70;3.30;;;;;;;24.30;40.52;101247.75;4973267;28;20026;-90
2022/04/27 09:41:13;;;;;;;3.97;3.58;;;;;;;24.44;38.84;101260.47;4971350;28;20027;-86
2022/04/27 09:43:49;;;;;;;7.28;3.70;;;;;;;24.50;39.30;101240.53;4987902;28;20031;-87
2022/04/27 09:46:20;;;;;;;7.60;3.58;;;;;;;24.62;38.77;101249.91;4992634;28;20022;-87
2022/04/27 09:48:46;;;;;;;8.40;3.40;;;;;;;24.69;40.36;101242.19;5008481;28;20022;-86
2022/04/27 09:51:15;;;;;;;4.25;3.20;;;;;;;24.77;38.50;101243.06;4976680;28;20451;-88
2022/04/27 09:53:42;;;;;;;4.78;2.88;;;;;;;24.83;38.91;101237.19;4988857;28;20034;-89
2022/04/27 09:56:11;;;;;;;5.07;2.92;;;;;;;24.99;38.54;101240.97;4988369;28;20018;-84
2022/04/27 09:58:43;;;;;;;8.23;3.30;;;;;;;25.15;38.83;101241.94;4955179;28;20022;-87
2022/04/27 10:01:10;;;;;;;7.45;4.45;;;;;;;24.95;39.48;101240.41;4987181;28;20125;-83
2022/04/27 10:03:36;;;;;;;4.10;3.03;;;;;;;24.93;37.21;101210.63;4971422;28;20034;-84
2022/04/27 10:06:01;;;;;;;4.63;2.60;;;;;;;25.16;36.88;101227.69;4977946;28;20050;-84
2022/04/27 10:08:27;;;;;;;3.60;2.70;;;;;;;25.35;36.32;101234.59;4978224;28;20053;-87
2022/04/27 10:10:52;;;;;;;4.07;2.80;;;;;;;25.55;36.18;101223.78;4975401;28;20053;-85
2022/04/27 10:13:18;;;;;;;2.90;2.28;;;;;;;25.65;35.21;101227.16;4985292;28;20034;-87
2022/04/27 10:15:45;;;;;;;4.47;2.40;;;;;;;25.60;35.64;101229.47;4985134;28;20560;-92
2022/04/27 10:18:15;;;;;;;5.75;2.40;;;;;;;25.56;35.16;101220.16;4969661;28;20034;-91
2022/04/27 10:20:41;;;;;;;3.15;2.00;;;;;;;25.75;33.98;101217.28;4969417;28;20042;-86
2022/04/27 10:23:15;;;;;;;3.55;2.00;;;;;;;25.80;33.44;101220.31;4987103;28;20165;-84
2022/04/27 10:25:41;;;;;;;3.35;1.92;;;;;;;25.58;32.49;101179.28;4984583;28;20023;-83
2022/04/27 10:28:22;;;;;;;3.78;2.10;;;;;;;25.88;33.07;101207.09;4946151;28;20030;-88
2022/04/27 10:30:48;;;;;;;4.10;1.50;;;;;;;25.90;31.47;101199.81;4980151;28;20776;-87
2022/04/27 10:33:39;;;;;;;2.45;1.30;;;;;;;25.93;31.01;101204.78;4969452;28;20051;-85
2022/04/27 10:36:20;;;;;;;3.55;1.50;;;;;;;25.89;31.97;101203.44;5000520;28;20026;-87
2022/04/27 10:39:11;;;;;;;2.55;1.40;;;;;;;26.12;32.07;101194.88;4984500;28;20030;-84
2022/04/27 10:41:41;;;;;;;3.55;1.60;;;;;;;26.17;32.03;101195.25;4982524;28;20042;-88
2022/04/27 10:44:06;;;;;;;3.65;1.50;;;;;;;26.15;31.16;101190.06;4979651;28;20098;-86
2022/04/27 10:46:39;;;;;;;4.57;1.40;;;;;;;26.19;32.28;101183.47;4967271;28;20118;-86
2022/04/27 10:49:23;;;;;;;9.70;1.73;;;;;;;26.27;32.19;101174.69;4968638;28;20482;-86
2022/04/27 10:52:05;;;;;;;5.88;1.73;;;;;;;26.31;31.76;101170.72;5001398;28;20069;-85
2022/04/27 10:54:35;;;;;;;3.70;1.50;;;;;;;26.29;31.22;101173.53;4968275;28;20034;-86
2022/04/27 10:57:16;;;;;;;3.70;1.90;;;;;;;26.39;30.86;101168.09;4986165;28;20460;-91
2022/04/27 10:59:59;;;;;;;5.05;2.05;;;;;;;26.50;31.91;101175.72;4988260;28;20563;-92
2022/04/27 11:02:44;;;;;;;3.58;2.00;;;;;;;26.63;31.91;101154.00;4971851;28;20186;-83
2022/04/27 11:05:13;;;;;;;4.32;1.50;;;;;;;26.62;31.07;101159.47;4958988;28;20493;-87
2022/04/27 11:07:42;;;;;;;3.08;1.77;;;;;;;26.76;30.96;101164.97;4970193;28;20527;-86
2022/04/27 11:10:11;;;;;;;4.90;1.40;;;;;;;26.51;30.62;101160.66;4965917;28;20523;-87
2022/04/27 11:12:41;;;;;;;2.40;1.52;;;;;;;26.37;30.88;101127.66;4984384;28;20048;-89
2022/04/27 11:15:07;;;;;;;3.08;1.20;;;;;;;26.58;31.00;101122.66;4986648;28;20030;-86
2022/04/27 11:17:34;;;;;;;2.75;1.50;;;;;;;26.80;29.88;101128.28;4970481;28;20458;-87
2022/04/27 11:20:00;;;;;;;2.38;1.40;;;;;;;26.82;29.73;101132.41;4967836;28;20023;-90
2022/04/27 11:22:26;;;;;;;4.18;2.80;;;;;;;26.77;30.36;101128.63;4967772;28;20034;-86
2022/04/27 11:24:53;;;;;;;5.68;1.70;;;;;;;26.98;29.67;101152.81;4989139;28;20038;-88
2022/04/27 11:27:26;;;;;;;4.30;1.77;;;;;;;27.09;29.52;101133.88;4986101;28;20139;-86
2022/04/27 11:29:52;;;;;;;6.47;3.85;;;;;;;27.12;29.01;101128.22;4971895;28;20045;-86
2022/04/27 11:32:17;;;;;;;3.72;2.90;;;;;;;27.23;26.53;101134.16;4970811;28;20034;-84
2022/04/27 11:34:47;;;;;;;2.15;1.20;;;;;;;27.18;27.16;101120.59;4987145;28;20135;-84
2022/04/27 11:37:15;;;;;;;3.78;1.50;;;;;;;27.23;28.32;101135.00;4989421;28;20097;-85
2022/04/27 11:39:40;;;;;;;3.47;1.52;;;;;;;27.24;29.13;101130.53;4985230;28;20034;-85
2022/04/27 11:42:06;;;;;;;3.03;1.40;;;;;;;27.24;29.42;101123.41;4983795;28;20089;-86
2022/04/27 11:44:32;;;;;;;2.10;1.20;;;;;;;27.48;28.78;101114.47;4983964;28;20045;-82
2022/04/27 11:46:58;;;;;;;1.70;1.20;;;;;;;27.68;28.49;101112.25;4985687;28;20112;-86
2022/04/27 11:49:24;;;;;;;2.67;1.85;;;;;;;27.67;28.41;101107.94;4946377;28;20043;-91